Data for 08/19/2013

Time Sea-Level Adjusted Pressure Absolute Pressure Temperature Relative Humidity Dew Point   
(mb) (inHg) (mb) (inHg) (C) (F) (%) (C) (F)
00:05 1021 30.15 850 25.1 18.8 65.8 34 2.9 37.2
00:10 1021 30.15 850 25.1 18.8 65.8 34 2.7 36.8
00:15 1021 30.15 850 25.1 18.8 65.8 35 3 37.4
00:20 1021 30.15 850 25.1 18.7 65.7 35 3.2 37.7
00:25 1021 30.15 850 25.1 18.4 65 36 3.3 37.9
00:30 1021 30.15 850 25.1 18.2 64.8 37 3.3 37.9
00:35 1021 30.15 850 25.1 18.2 64.8 37 3.4 38.1
00:40 1021 30.15 850 25.1 18.1 64.5 37 3.3 38
00:45 1021 30.15 850 25.1 17.9 64.2 37 3.2 37.7
00:50 1021 30.15 850 25.1 18.1 64.6 35 2.4 36.3
00:55 1021 30.15 850 25.1 18.6 65.4 35 3.1 37.5
01:00 1021 30.15 850 25.1 18.2 64.8 35 2.8 37.1
01:05 1021 30.15 850 25.1 18.3 64.9 35 2.8 37
01:10 1021 30.15 850 25.1 18.2 64.8 36 3 37.4
01:15 1021 30.15 850 25.1 18.3 64.9 36 2.9 37.2
01:20 1021 30.15 850 25.1 18.2 64.8 37 3.4 38.1
01:25 1021 30.15 850 25.1 18.2 64.7 36 3.1 37.5
01:30 1021 30.15 850 25.1 18.1 64.5 36 3.1 37.6
01:35 1021 30.15 850 25.1 17.9 64.3 38 3.5 38.3
01:40 1021 30.15 850 25.1 17.9 64.1 37 3.2 37.7
01:45 1021 30.15 850 25.1 17.6 63.7 38 3.3 37.9
01:50 1021 30.15 850 25.1 17.5 63.6 36 2.6 36.6
01:55 1021 30.15 850 25.1 18.1 64.6 34 2.2 36
02:00 1021 30.15 850 25.1 18.3 64.9 39 4.2 39.6
02:05 1021 30.15 850 25.1 17.4 63.2 42 4.3 39.7
02:10 1021 30.15 850 25.1 16.3 61.3 45 4.5 40.1
02:15 1021 30.15 850 25.1 15.9 60.7 44 3.7 38.7
02:20 1021 30.15 850 25.1 16 60.8 47 4.8 40.6
02:25 1021 30.15 850 25.1 15.9 60.6 47 4.8 40.6
02:30 1021 30.15 850 25.1 15.9 60.6 44 3.6 38.5
02:35 1021 30.15 850 25.1 15.9 60.5 44 3.8 38.9
02:40 1021 30.15 850 25.1 15.7 60.2 45 3.9 38.9
02:45 1021 30.15 850 25.1 15.7 60.3 45 3.8 38.9
02:50 1021 30.15 850 25.1 15.9 60.6 49 5.4 41.7
02:55 1021 30.15 850 25.1 15.7 60.2 45 4 39.2
03:00 1021 30.15 850 25.1 15.2 59.3 48 4.4 40
03:05 1021 30.15 850 25.1 14.6 58.3 50 4.5 40.1
03:10 1021 30.15 850 25.1 14.3 57.7 50 4.1 39.5
03:15 1021 30.15 850 25.1 14.3 57.7 50 3.9 39.1
03:20 1021 30.15 850 25.1 14.6 58.2 47 3.6 38.5
03:25 1021 30.15 850 25.1 14.8 58.6 47 3.8 38.9
03:30 1021 30.15 850 25.1 14.7 58.5 48 3.9 39.1
03:35 1021 30.15 850 25.1 14.6 58.2 48 3.9 39
03:40 1021 30.15 850 25.1 14.6 58.2 47 3.6 38.4
03:45 1021 30.15 850 25.1 14.9 58.7 46 3.4 38.2
03:50 1021 30.15 850 25.1 15.1 59.1 45 3.4 38.2
03:55 1021 30.15 850 25.1 15.2 59.4 44 3.2 37.8
04:00 1021 30.15 850 25.1 15.4 59.8 44 3.3 37.9
04:05 1021 30.15 850 25.1 15.5 59.9 44 3.3 38
04:10 1021 30.15 850 25.1 15.6 60 44 3.4 38.1
04:15 1021 30.15 850 25.1 15.3 59.6 45 3.5 38.4
04:20 1021 30.15 850 25.1 15.4 59.7 44 3.2 37.8
04:25 1021 30.15 850 25.1 15.4 59.8 45 3.6 38.5
04:30 1021 30.15 850 25.1 15.4 59.6 44 3.2 37.8
04:35 1021 30.15 850 25.1 15.7 60.2 43 3.2 37.8
04:40 1021 30.15 850 25.1 15.7 60.3 43 3.2 37.7
04:45 1021 30.15 850 25.1 15.8 60.4 42 3 37.4
04:50 1021 30.15 850 25.1 16 60.7 41 2.8 37
04:55 1021 30.15 850 25.1 16.2 61.1 41 2.9 37.2
05:00 1021 30.15 850 25.1 16.2 61.1 42 3.2 37.8
05:05 1021 30.15 850 25.1 15.9 60.6 42 3.1 37.7
05:10 1021 30.15 850 25.1 15.8 60.5 42 3.2 37.7
05:15 1021 30.15 850 25.1 15.8 60.4 42 3.1 37.6
05:20 1021 30.15 851 25.13 15.8 60.4 43 3.3 37.9
05:25 1021 30.15 851 25.13 15.5 59.9 44 3.3 38
05:30 1021 30.15 851 25.13 15.3 59.6 44 3.2 37.7
05:35 1021 30.15 851 25.13 15.2 59.4 45 3.3 38
05:40 1021 30.15 851 25.13 15.2 59.3 44 3.2 37.7
05:45 1021 30.15 851 25.13 15.3 59.5 45 3.5 38.3
05:50 1021 30.15 851 25.13 15.1 59.2 45 3.3 37.9
05:55 1021 30.15 851 25.13 15.2 59.4 44 3 37.5
06:00 1021 30.15 851 25.13 15.4 59.7 43 3 37.4
06:05 1021 30.15 851 25.13 15.7 60.3 42 3.1 37.5
06:10 1021 30.15 851 25.13 16 60.8 42 3.2 37.7
06:15 1021 30.15 851 25.13 16.1 61 42 3.2 37.8
06:20 1021 30.15 851 25.13 16.1 61 43 3.5 38.3
06:25 1021 30.15 851 25.13 15.9 60.6 44 3.7 38.6
06:30 1021 30.15 851 25.13 15.8 60.5 44 3.6 38.6
06:35 1021 30.15 851 25.13 15.8 60.5 45 4.2 39.5
06:40 1021 30.15 851 25.13 15.9 60.6 45 4.1 39.3
06:45 1021 30.15 851 25.13 16.1 60.9 44 4 39.1
06:50 1022 30.18 851 25.13 16 60.9 45 4.3 39.8
06:55 1022 30.18 851 25.13 16 60.7 44 3.8 38.9
07:00 1022 30.18 851 25.13 16.3 61.4 43 3.9 39.1
07:05 1022 30.18 851 25.13 16.8 62.2 43 4.2 39.6
07:10 1022 30.18 851 25.13 16.9 62.5 43 4.5 40.1
07:15 1022 30.18 851 25.13 17.3 63.1 41 4.1 39.4
07:20 1022 30.18 851 25.13 17.8 64 41 4.6 40.2
07:25 1022 30.18 851 25.13 18.4 65 40 4.5 40.1
07:30 1022 30.18 851 25.13 18.4 65 39 4.5 40
07:35 1022 30.18 851 25.13 18.6 65.4 41 5.2 41.3
07:40 1022 30.18 851 25.13 19.1 66.4 40 5.1 41.3
07:45 1022 30.18 851 25.13 19.6 67.2 39 5.4 41.8
07:50 1022 30.18 851 25.13 19.8 67.7 36 4.5 40.1
07:55 1022 30.18 851 25.13 20.3 68.5 35 4.5 40.1
08:00 1022 30.18 851 25.13 21 69.7 32 3.7 38.7
08:05 1022 30.18 851 25.13 21.7 71.1 30 3.7 38.7
08:10 1022 30.18 851 25.13 22.3 72.1 30 4.3 39.7
08:15 1022 30.18 851 25.13 22.3 72.2 31 4.4 39.9
08:20 1022 30.18 851 25.13 21.6 70.8 32 4.2 39.6
08:25 1022 30.18 851 25.13 21.8 71.2 31 4 39.2
08:30 1022 30.18 851 25.13 21.9 71.3 30 3.8 38.9
08:35 1022 30.18 851 25.13 22.4 72.3 29 3.8 38.9
08:40 1022 30.18 851 25.13 23 73.4 28 3.8 38.9
08:45 1022 30.18 851 25.13 23.4 74.2 29 4.8 40.7
08:50 1022 30.18 851 25.13 23.1 73.6 29 4.2 39.5
08:55 1022 30.18 851 25.13 23.7 74.7 27 3.6 38.5
09:00 1022 30.18 851 25.13 24.2 75.5 27 4 39.2
09:05 1022 30.18 851 25.13 24 75.2 27 3.8 38.9
09:10 1022 30.18 851 25.13 24.5 76 25 3.6 38.5
09:15 1022 30.18 851 25.13 24.5 76 25 3.5 38.3
09:20 1022 30.18 851 25.13 24.4 75.9 26 3.9 39.1
09:25 1022 30.18 851 25.13 24.7 76.5 26 4 39.2
09:30 1022 30.18 851 25.13 24.7 76.5 27 4.6 40.2
09:35 1022 30.18 851 25.13 24.7 76.5 26 4.2 39.5
09:40 1022 30.18 851 25.13 24.9 76.7 26 4.3 39.8
09:45 1022 30.18 851 25.13 25.3 77.5 26 4.6 40.3
09:50 1022 30.18 851 25.13 25.7 78.3 25 4.5 40.2
09:55 1022 30.18 851 25.13 25.5 78 25 4.1 39.4
10:00 1022 30.18 851 25.13 26.1 78.9 25 4.5 40.2
10:05 1022 30.18 851 25.13 25.6 78.1 25 4.4 39.9
10:10 1022 30.18 851 25.13 25.7 78.2 23 3.5 38.2
10:15 1022 30.18 851 25.13 25.9 78.5 24 3.8 38.9
10:20 1022 30.18 851 25.13 26.1 79 24 4.3 39.7
10:25 1021 30.15 851 25.13 26.2 79.1 24 4.4 39.9
10:30 1021 30.15 851 25.13 26.4 79.5 22 3.5 38.3
10:35 1021 30.15 851 25.13 25.7 78.2 23 3.1 37.5
10:40 1021 30.15 851 25.13 26.4 79.6 21 2.9 37.2
10:45 1021 30.15 851 25.13 26.8 80.2 22 3.4 38.2
10:50 1021 30.15 851 25.13 26.5 79.6 22 3.1 37.6
10:55 1021 30.15 851 25.13 26.9 80.4 22 3.4 38.1
11:00 1021 30.15 851 25.13 26.9 80.5 23 4.1 39.3
11:05 1021 30.15 851 25.13 27 80.5 22 3.5 38.3
11:10 1021 30.15 850 25.1 26.1 78.9 22 3.2 37.7
11:15 1021 30.15 850 25.1 26.9 80.5 21 3 37.3
11:20 1021 30.15 850 25.1 27.2 80.9 21 3.3 38
11:25 1021 30.15 850 25.1 27.7 81.9 21 3.6 38.5
11:30 1021 30.15 850 25.1 28.4 83.1 20 3.4 38
11:35 1021 30.15 850 25.1 28.2 82.7 20 3.5 38.3
11:40 1021 30.15 850 25.1 28.6 83.5 20 3.5 38.3
11:45 1021 30.15 850 25.1 29.3 84.7 19 3.4 38.1
11:50 1021 30.15 850 25.1 29.3 84.7 19 3.9 39.1
11:55 1021 30.15 850 25.1 28.1 82.6 20 3.1 37.5
12:00 1021 30.15 850 25.1 28.6 83.5 19 3.1 37.6
12:05 1021 30.15 850 25.1 29 84.2 17 2.1 35.7
12:10 1021 30.15 850 25.1 29.2 84.6 17 2.3 36.2
12:15 1021 30.15 850 25.1 29.4 85 17 2.6 36.6
12:20 1020 30.12 850 25.1 29.5 85 17 2 35.6
12:25 1020 30.12 850 25.1 30.1 86.2 15 1.3 34.4
12:30 1020 30.12 849 25.07 29.4 85 17 2.2 36
12:35 1020 30.12 849 25.07 30 85.9 15 1.2 34.2
12:40 1020 30.12 849 25.07 30.6 87 18 3.7 38.6
12:45 1020 30.12 849 25.07 30.3 86.5 15 0.8 33.5
12:50 1020 30.12 849 25.07 30.5 87 14 0.8 33.4
12:55 1020 30.12 849 25.07 30.7 87.2 15 1.6 34.8
13:00 1020 30.12 849 25.07 30.4 86.8 15 0.9 33.6
13:05 1020 30.12 849 25.07 31.4 88.5 14 1.4 34.6
13:10 1020 30.12 849 25.07 31 87.8 15 1.6 34.9
13:15 1020 30.12 849 25.07 31.5 88.6 14 1.2 34.1
13:20 1020 30.12 849 25.07 32 89.6 14 2 35.6
13:25 1020 30.12 849 25.07 30.9 87.7 15 1.7 35
13:30 1020 30.12 849 25.07 31 87.8 13 0 32.1
13:35 1020 30.12 849 25.07 31.1 88 14 1.2 34.1
13:40 1019 30.09 849 25.07 31.6 88.9 14 1.3 34.4
13:45 1019 30.09 849 25.07 32 89.5 13 0.3 32.5
13:50 1019 30.09 848 25.04 32.1 89.9 13 0.9 33.6
13:55 1019 30.09 848 25.04 32.5 90.6 13 1.4 34.6
14:00 1019 30.09 848 25.04 32.6 90.7 13 1.3 34.4
14:05 1019 30.09 848 25.04 31.2 88.2 13 -0.5 31.1
14:10 1019 30.09 848 25.04 31.8 89.2 12 -0.2 31.6
14:15 1019 30.09 848 25.04 31.9 89.4 12 -0.3 31.4
14:20 1019 30.09 848 25.04 32.3 90.1 13 0.6 33.1
14:25 1019 30.09 848 25.04 31.8 89.3 13 0.7 33.2
14:30 1019 30.09 848 25.04 31.4 88.5 14 1.2 34.1
14:35 1019 30.09 848 25.04 31.6 88.8 13 0.4 32.8
14:40 1019 30.09 848 25.04 31.3 88.4 13 0.4 32.8
14:45 1019 30.09 848 25.04 31.2 88.2 14 0.6 33.1
14:50 1018 30.06 848 25.04 31.6 88.8 14 1.3 34.4
14:55 1018 30.06 848 25.04 30.6 87.1 15 0.9 33.7
15:00 1018 30.06 848 25.04 30.6 87.1 14 0.7 33.3
15:05 1018 30.06 847 25.01 31.3 88.3 14 0.6 33
15:10 1018 30.06 847 25.01 31 87.9 13 0.2 32.3
15:15 1018 30.06 847 25.01 31.5 88.8 13 0.5 32.8
15:20 1018 30.06 847 25.01 31.5 88.7 13 0.5 32.8
15:25 1018 30.06 847 25.01 31.9 89.4 13 0.3 32.5
15:30 1018 30.06 847 25.01 32.3 90.1 12 -0.7 30.8
15:35 1018 30.06 847 25.01 32.3 90.2 12 -0 32
15:40 1018 30.06 847 25.01 32.5 90.4 12 -0.3 31.4
15:45 1018 30.06 847 25.01 32.5 90.5 12 -0.5 31.1
15:50 1018 30.06 847 25.01 32.5 90.4 12 -0.8 30.6
15:55 1018 30.06 847 25.01 32.7 90.8 12 -0.2 31.6
16:00 1018 30.06 847 25.01 32.7 90.8 12 -0.1 31.8
16:05 1018 30.06 847 25.01 32.3 90.1 12 -0.9 30.4
16:10 1018 30.06 847 25.01 32.3 90.1 11 -1.4 29.5
16:15 1017 30.03 847 25.01 32.5 90.5 11 -1 30.3
16:20 1017 30.03 847 25.01 32.7 90.9 11 -1.7 29
16:25 1017 30.03 847 25.01 32.7 90.8 10 -2 28.5
16:30 1017 30.03 847 25.01 32.9 91.1 11 -1.3 29.6
16:35 1017 30.03 846 24.98 32.4 90.4 12 -0.7 30.7
16:40 1017 30.03 846 24.98 32.1 89.8 11 -1.1 30
16:45 1017 30.03 846 24.98 31.3 88.3 12 -1 30.2
16:50 1017 30.03 846 24.98 31 87.8 12 -1.2 29.9
16:55 1017 30.03 846 24.98 31.3 88.4 12 -0.8 30.5
17:00 1017 30.03 846 24.98 31.3 88.3 12 -1.4 29.4
17:05 1017 30.03 846 24.98 31.5 88.8 12 -0.8 30.5
17:10 1017 30.03 846 24.98 32.1 89.8 12 -0.5 31.2
17:15 1017 30.03 846 24.98 32.2 90 11 -1.9 28.5
17:20 1017 30.03 846 24.98 32.5 90.4 10 -2.4 27.7
17:25 1017 30.03 846 24.98 32.4 90.4 10 -2.3 27.8
17:30 1017 30.03 846 24.98 32.2 89.9 11 -1.6 29
17:35 1017 30.03 846 24.98 32.3 90.1 10 -2.3 27.8
17:40 1017 30.03 846 24.98 32.3 90.1 10 -2.5 27.4
17:45 1017 30.03 846 24.98 32 89.6 10 -2.7 27.2
17:50 1017 30.03 846 24.98 31.5 88.8 10 -2.8 27
17:55 1017 30.03 846 24.98 31.5 88.7 11 -2.4 27.7
18:00 1017 30.03 846 24.98 31.4 88.5 10 -2.9 26.7
18:05 1017 30.03 846 24.98 31.2 88.2 11 -2.8 27
18:10 1017 30.03 846 24.98 31 87.9 12 -1.9 28.6
18:15 1017 30.03 846 24.98 30.7 87.2 11 -3 26.7
18:20 1017 30.03 846 24.98 30.5 86.8 11 -2.9 26.7
18:25 1017 30.03 846 24.98 30.2 86.4 11 -3.7 25.3
18:30 1017 30.03 846 24.98 30.3 86.5 11 -3.1 26.5
18:35 1017 30.03 846 24.98 30.1 86.1 12 -2 28.3
18:40 1017 30.03 846 24.98 29.9 85.8 12 -2.1 28.2
18:45 1017 30.03 846 24.98 29.7 85.5 13 -1.8 28.7
18:50 1017 30.03 846 24.98 29.5 85.1 12 -2.2 28.1
18:55 1017 30.03 846 24.98 29.3 84.7 13 -1.7 29
19:00 1017 30.03 846 24.98 29 84.2 14 -1.3 29.7
19:05 1017 30.03 846 24.98 28.7 83.7 14 -1.5 29.3
19:10 1017 30.03 846 24.98 28.4 83.2 14 -1.7 28.9
19:15 1017 30.03 846 24.98 28.2 82.7 14 -1.2 29.8
19:20 1017 30.03 846 24.98 27.8 82.1 14 -1.4 29.5
19:25 1017 30.03 846 24.98 27.5 81.5 15 -1.2 29.8
19:30 1017 30.03 846 24.98 26.6 79.8 15 -1.7 29
19:35 1017 30.03 846 24.98 25.8 78.5 15 -2.2 28.1
19:40 1017 30.03 846 24.98 25.3 77.6 17 -1.1 30
19:45 1017 30.03 846 24.98 24.9 76.7 17 -1.5 29.2
19:50 1017 30.03 847 25.01 24.9 76.7 15 -2.9 26.7
19:55 1017 30.03 847 25.01 24.9 76.8 18 -0.9 30.3
20:00 1017 30.03 847 25.01 24.7 76.5 20 0.4 32.7
20:05 1018 30.06 847 25.01 24.2 75.5 24 2.7 36.9
20:10 1018 30.06 847 25.01 23.9 75 18 -1.9 28.6
20:15 1018 30.06 847 25.01 24.3 75.8 17 -2.4 27.7
20:20 1018 30.06 847 25.01 24.3 75.7 17 -2.2 28
20:25 1018 30.06 847 25.01 24.1 75.3 17 -2.3 27.8
20:30 1018 30.06 847 25.01 24.1 75.4 17 -2.4 27.6
20:35 1018 30.06 847 25.01 24 75.1 17 -2.3 27.8
20:40 1018 30.06 847 25.01 23.8 74.8 17 -2.5 27.4
20:45 1018 30.06 847 25.01 23.4 74 18 -2.2 28.1
20:50 1018 30.06 847 25.01 23 73.3 18 -2.3 27.9
20:55 1018 30.06 847 25.01 22.8 73 19 -1.9 28.5
21:00 1018 30.06 847 25.01 22.6 72.7 21 -0.8 30.5
21:05 1018 30.06 847 25.01 21.7 71 23 -0.2 31.6
21:10 1018 30.06 848 25.04 21.6 70.8 20 -2 28.4
21:15 1018 30.06 848 25.04 21.9 71.5 19 -2.7 27.2
21:20 1018 30.06 848 25.04 22.3 72.1 18 -2.8 27
21:25 1018 30.06 848 25.04 22.5 72.5 18 -2.8 26.9
21:30 1018 30.06 848 25.04 22.6 72.7 18 -2.4 27.7
21:35 1019 30.09 848 25.04 22.3 72.2 18 -2.6 27.2
21:40 1019 30.09 848 25.04 22.2 71.9 19 -2.4 27.7
21:45 1019 30.09 848 25.04 22.1 71.7 19 -2.1 28.2
21:50 1019 30.09 848 25.04 22.1 71.7 18 -3.2 26.3
21:55 1019 30.09 848 25.04 22.2 71.9 18 -3.3 26
22:00 1019 30.09 848 25.04 21.9 71.5 20 -2.1 28.2
22:05 1019 30.09 848 25.04 21.4 70.5 21 -1.7 29
22:10 1019 30.09 848 25.04 20.8 69.4 21 -2.1 28.3
22:15 1019 30.09 848 25.04 20.5 68.8 22 -2 28.4
22:20 1019 30.09 848 25.04 20.6 69 22 -1.7 28.9
22:25 1019 30.09 848 25.04 20.6 69.1 21 -2.4 27.6
22:30 1019 30.09 848 25.04 20.5 68.9 22 -1.8 28.7
22:35 1019 30.09 848 25.04 20.2 68.3 22 -2 28.4
22:40 1019 30.09 848 25.04 19.9 67.7 23 -1.4 29.4
22:45 1019 30.09 848 25.04 19.8 67.6 22 -2.2 28.1
22:50 1019 30.09 848 25.04 19.7 67.5 21 -2.8 27
22:55 1019 30.09 848 25.04 20.2 68.3 21 -2.7 27.2
23:00 1019 30.09 848 25.04 20.3 68.5 21 -2.6 27.2
23:05 1019 30.09 848 25.04 20.1 68.1 23 -1.3 29.7
23:10 1019 30.09 848 25.04 19.6 67.2 24 -1.4 29.5
23:15 1019 30.09 848 25.04 18.7 65.7 26 -0.8 30.6
23:20 1019 30.09 848 25.04 17.9 64.1 26 -1.6 29.1
23:25 1019 30.09 848 25.04 18 64.5 26 -1.9 28.7
23:30 1019 30.09 848 25.04 18.3 64.9 25 -2.1 28.2
23:35 1019 30.09 848 25.04 18.8 65.9 23 -2.5 27.5
23:40 1019 30.09 848 25.04 18.8 65.9 24 -2.2 28
23:45 1019 30.09 848 25.04 18.9 65.9 23 -2.6 27.3
23:50 1019 30.09 848 25.04 19.2 66.5 23 -2.3 27.8
23:55 1019 30.09 848 25.04 19.4 66.8 22 -3 26.7
24:00 1019 30.09 848 25.04 19.4 66.9 21 -3.2 26.3